createdAt,value
2023-03-31T00:00:38.920Z,993.10
2023-03-31T00:01:38.899Z,993.05
2023-03-31T00:02:38.956Z,993.07
2023-03-31T00:03:39.266Z,993.04
2023-03-31T00:04:38.875Z,993.04
2023-03-31T00:05:38.877Z,993.02
2023-03-31T00:06:38.836Z,993.02
2023-03-31T00:07:38.832Z,992.98
2023-03-31T00:08:38.784Z,992.94
2023-03-31T00:09:38.782Z,992.93
2023-03-31T00:10:38.776Z,992.92
2023-03-31T00:11:38.772Z,992.94
2023-03-31T00:12:38.740Z,992.92
2023-03-31T00:13:38.736Z,992.91
2023-03-31T00:14:38.706Z,992.90
2023-03-31T00:15:38.702Z,992.90
2023-03-31T00:16:38.796Z,992.89
2023-03-31T00:17:38.715Z,992.86
2023-03-31T00:18:38.667Z,992.79
2023-03-31T00:19:38.650Z,992.77
2023-03-31T00:20:38.724Z,992.75
2023-03-31T00:21:38.645Z,992.79
2023-03-31T00:22:38.630Z,992.80
2023-03-31T00:23:38.603Z,992.78
2023-03-31T00:24:38.584Z,992.77
2023-03-31T00:25:38.577Z,992.77
2023-03-31T00:26:38.578Z,992.75
2023-03-31T00:27:38.559Z,992.73
2023-03-31T00:28:38.529Z,992.78
2023-03-31T00:29:38.523Z,992.76
2023-03-31T00:30:38.508Z,992.71
2023-03-31T00:31:38.533Z,992.63
2023-03-31T00:32:38.589Z,992.63
2023-03-31T00:33:38.465Z,992.59
2023-03-31T00:34:38.455Z,992.51
2023-03-31T00:35:38.480Z,992.50
2023-03-31T00:36:38.425Z,992.51
2023-03-31T00:37:38.430Z,992.47
2023-03-31T00:38:38.392Z,992.43
2023-03-31T00:39:38.379Z,992.41
2023-03-31T00:40:38.439Z,992.40
2023-03-31T00:41:38.363Z,992.40
2023-03-31T00:42:38.358Z,992.40
2023-03-31T00:43:38.329Z,992.33
2023-03-31T00:44:38.307Z,992.34
2023-03-31T00:45:38.381Z,992.38
2023-03-31T00:46:38.284Z,992.35
2023-03-31T00:47:38.329Z,992.37
2023-03-31T00:48:38.271Z,992.35
2023-03-31T00:49:38.259Z,992.30
2023-03-31T00:50:38.232Z,992.29
2023-03-31T00:51:38.224Z,992.23
2023-03-31T00:52:38.237Z,992.17
2023-03-31T00:53:38.198Z,992.13
2023-03-31T00:54:38.186Z,992.12
2023-03-31T00:55:38.214Z,992.10
2023-03-31T00:56:38.157Z,992.09
2023-03-31T00:57:38.170Z,992.09
2023-03-31T00:58:38.144Z,992.04
2023-03-31T00:59:38.126Z,992.02
2023-03-31T01:00:38.093Z,991.96
2023-03-31T01:01:38.151Z,991.97
2023-03-31T01:02:38.196Z,991.94
2023-03-31T01:03:38.088Z,991.91
2023-03-31T01:04:38.045Z,991.88
2023-03-31T01:05:38.050Z,991.83
2023-03-31T01:06:38.035Z,991.81
2023-03-31T01:07:38.074Z,991.76
2023-03-31T01:08:38.002Z,991.80
2023-03-31T01:09:38.006Z,991.76
2023-03-31T01:10:38.124Z,991.73
2023-03-31T01:11:37.986Z,991.74
2023-03-31T01:12:37.946Z,991.78
2023-03-31T01:13:37.935Z,991.75
2023-03-31T01:14:37.929Z,991.74
2023-03-31T01:15:37.913Z,991.72
2023-03-31T01:16:38.045Z,991.72
2023-03-31T01:17:38.089Z,991.75
2023-03-31T01:18:37.890Z,991.74
2023-03-31T01:19:37.872Z,991.70
2023-03-31T01:20:37.835Z,991.73
2023-03-31T01:21:37.836Z,991.70
2023-03-31T01:22:37.817Z,991.69
2023-03-31T01:23:37.813Z,991.69
2023-03-31T01:24:37.802Z,991.65
2023-03-31T01:25:37.768Z,991.60
2023-03-31T01:26:37.761Z,991.63
2023-03-31T01:27:37.761Z,991.59
2023-03-31T01:28:37.717Z,991.61
2023-03-31T01:29:37.737Z,991.63
2023-03-31T01:30:37.707Z,991.56
2023-03-31T01:31:37.780Z,991.54
2023-03-31T01:32:37.736Z,991.51
2023-03-31T01:33:37.678Z,991.51
2023-03-31T01:34:37.674Z,991.43
2023-03-31T01:35:37.662Z,991.42
2023-03-31T01:36:37.628Z,991.36
2023-03-31T01:37:37.684Z,991.37
2023-03-31T01:38:37.609Z,991.28
2023-03-31T01:39:37.610Z,991.28
2023-03-31T01:40:37.585Z,991.25
2023-03-31T01:41:37.571Z,991.22
2023-03-31T01:42:37.547Z,991.24
2023-03-31T01:43:37.542Z,991.21
2023-03-31T01:44:37.536Z,991.19
2023-03-31T01:45:37.519Z,991.15
2023-03-31T01:46:37.530Z,991.11
2023-03-31T01:47:37.518Z,991.16
2023-03-31T01:48:37.475Z,991.09
2023-03-31T01:49:37.476Z,991.14
2023-03-31T01:50:37.436Z,991.10
2023-03-31T01:51:37.433Z,991.08
2023-03-31T01:52:37.414Z,991.03
2023-03-31T01:53:37.424Z,991.01
2023-03-31T01:54:37.408Z,991.01
2023-03-31T01:55:37.379Z,990.95
2023-03-31T01:56:37.377Z,990.93
2023-03-31T01:57:37.367Z,990.93
2023-03-31T01:58:37.326Z,990.89
2023-03-31T01:59:37.324Z,990.87
2023-03-31T02:00:37.327Z,990.86
2023-03-31T02:01:37.565Z,990.84
2023-03-31T02:02:37.377Z,990.79
2023-03-31T02:03:37.410Z,990.82
2023-03-31T02:04:37.287Z,990.78
2023-03-31T02:05:37.269Z,990.79
2023-03-31T02:06:37.219Z,990.75
2023-03-31T02:07:37.229Z,990.72
2023-03-31T02:08:37.197Z,990.71
2023-03-31T02:09:37.198Z,990.67
2023-03-31T02:10:37.195Z,990.60
2023-03-31T02:11:37.159Z,990.58
2023-03-31T02:12:37.155Z,990.56
2023-03-31T02:13:37.154Z,990.57
2023-03-31T02:14:37.126Z,990.54
2023-03-31T02:15:37.141Z,990.56
2023-03-31T02:16:37.143Z,990.55
2023-03-31T02:17:37.188Z,990.54
2023-03-31T02:18:37.080Z,990.55
2023-03-31T02:19:37.058Z,990.56
2023-03-31T02:20:37.085Z,990.51
2023-03-31T02:21:37.037Z,990.52
2023-03-31T02:22:37.019Z,990.46
2023-03-31T02:23:37.005Z,990.45
2023-03-31T02:24:36.989Z,990.44
2023-03-31T02:25:37.009Z,990.44
2023-03-31T02:26:36.968Z,990.45
2023-03-31T02:27:36.992Z,990.43
2023-03-31T02:28:36.965Z,990.39
2023-03-31T02:29:36.920Z,990.41
2023-03-31T02:30:36.928Z,990.39
2023-03-31T02:31:36.977Z,990.35
2023-03-31T02:32:36.900Z,990.35
2023-03-31T02:33:36.869Z,990.30
2023-03-31T02:34:36.860Z,990.27
2023-03-31T02:35:36.910Z,990.29
2023-03-31T02:36:36.899Z,990.23
2023-03-31T02:37:36.831Z,990.20
2023-03-31T02:38:36.801Z,990.18
2023-03-31T02:39:36.792Z,990.12
2023-03-31T02:40:36.786Z,990.11
2023-03-31T02:41:36.805Z,990.06
2023-03-31T02:42:43.974Z,990.07
2023-03-31T02:43:36.767Z,990.03
2023-03-31T02:44:36.733Z,990.04
2023-03-31T02:45:36.773Z,990.04
2023-03-31T02:46:36.688Z,990.04
2023-03-31T02:47:36.751Z,989.98
2023-03-31T02:48:36.668Z,989.97
2023-03-31T02:49:36.666Z,989.94
2023-03-31T02:50:36.662Z,989.92
2023-03-31T02:51:36.635Z,989.86
2023-03-31T02:52:36.635Z,989.84
2023-03-31T02:53:36.602Z,989.80
2023-03-31T02:54:36.580Z,989.71
2023-03-31T02:55:36.585Z,989.67
2023-03-31T02:56:36.577Z,989.62
2023-03-31T02:57:36.557Z,989.58
2023-03-31T02:58:36.530Z,989.53
2023-03-31T02:59:36.522Z,989.50
2023-03-31T03:00:36.501Z,989.46
2023-03-31T03:01:36.553Z,989.44
2023-03-31T03:02:36.526Z,989.34
2023-03-31T03:03:36.536Z,989.26
2023-03-31T03:04:36.452Z,989.23
2023-03-31T03:05:36.452Z,989.14
2023-03-31T03:06:36.442Z,989.09
2023-03-31T03:07:36.430Z,989.02
2023-03-31T03:08:36.393Z,989.02
2023-03-31T03:09:36.396Z,988.97
2023-03-31T03:10:36.406Z,988.94
2023-03-31T03:11:36.388Z,988.88
2023-03-31T03:12:36.344Z,988.92
2023-03-31T03:13:36.342Z,988.95
2023-03-31T03:14:36.329Z,988.98
2023-03-31T03:15:36.315Z,989.03
2023-03-31T03:16:36.357Z,989.08
2023-03-31T03:17:36.343Z,989.10
2023-03-31T03:18:36.272Z,989.10
2023-03-31T03:19:36.260Z,989.08
2023-03-31T03:20:36.243Z,989.05
2023-03-31T03:21:36.244Z,989.02
2023-03-31T03:22:36.221Z,988.96
2023-03-31T03:23:36.211Z,988.91
2023-03-31T03:24:36.186Z,988.87
2023-03-31T03:25:36.177Z,988.77
2023-03-31T03:26:36.167Z,988.75
2023-03-31T03:27:36.179Z,988.75
2023-03-31T03:28:36.131Z,988.77
2023-03-31T03:29:36.115Z,988.73
2023-03-31T03:30:36.106Z,988.82
2023-03-31T03:31:36.126Z,988.81
2023-03-31T03:32:36.112Z,988.79
2023-03-31T03:33:36.068Z,988.76
2023-03-31T03:34:36.060Z,988.72
2023-03-31T03:35:36.056Z,988.77
2023-03-31T03:36:36.023Z,988.77
2023-03-31T03:37:36.038Z,988.74
2023-03-31T03:38:35.991Z,988.77
2023-03-31T03:39:35.986Z,988.79
2023-03-31T03:40:35.970Z,988.81
2023-03-31T03:41:35.974Z,988.78
2023-03-31T03:42:35.973Z,988.73
2023-03-31T03:43:35.936Z,988.69
2023-03-31T03:44:35.921Z,988.58
2023-03-31T03:45:35.907Z,988.57
2023-03-31T03:46:35.937Z,988.53
2023-03-31T03:47:36.010Z,988.42
2023-03-31T03:48:35.890Z,988.39
2023-03-31T03:49:35.923Z,988.33
2023-03-31T03:50:35.849Z,988.30
2023-03-31T03:51:35.838Z,988.29
2023-03-31T03:52:35.839Z,988.30
2023-03-31T03:53:35.800Z,988.27
2023-03-31T03:54:35.792Z,988.25
2023-03-31T03:55:36.016Z,988.24
2023-03-31T03:56:35.771Z,988.24
2023-03-31T03:57:35.758Z,988.26
2023-03-31T03:58:35.735Z,988.18
2023-03-31T03:59:35.724Z,988.12
2023-03-31T04:00:35.716Z,988.09
2023-03-31T04:01:35.735Z,988.15
2023-03-31T04:02:35.760Z,988.19
2023-03-31T04:03:35.686Z,988.26
2023-03-31T04:04:35.679Z,988.25
2023-03-31T04:05:35.639Z,988.24
2023-03-31T04:06:35.631Z,988.20
2023-03-31T04:07:35.628Z,988.23
2023-03-31T04:08:35.601Z,988.23
2023-03-31T04:09:35.581Z,988.25
2023-03-31T04:10:35.570Z,988.20
2023-03-31T04:11:35.570Z,988.21
2023-03-31T04:12:35.554Z,988.21
2023-03-31T04:13:35.524Z,988.24
2023-03-31T04:14:35.520Z,988.24
2023-03-31T04:15:35.508Z,988.21
2023-03-31T04:16:35.541Z,988.19
2023-03-31T04:17:35.537Z,988.19
2023-03-31T04:18:35.471Z,988.12
2023-03-31T04:19:35.444Z,988.17
2023-03-31T04:20:35.432Z,988.08
2023-03-31T04:21:35.689Z,988.09
2023-03-31T04:22:35.469Z,988.08
2023-03-31T04:23:35.418Z,988.07
2023-03-31T04:24:35.401Z,988.06
2023-03-31T04:25:35.362Z,987.99
2023-03-31T04:26:35.367Z,987.99
2023-03-31T04:27:35.337Z,988.00
2023-03-31T04:28:35.346Z,987.99
2023-03-31T04:29:35.312Z,987.95
2023-03-31T04:30:35.306Z,987.87
2023-03-31T04:31:36.423Z,987.87
2023-03-31T04:32:35.331Z,987.83
2023-03-31T04:33:35.447Z,987.77
2023-03-31T04:34:35.722Z,987.73
2023-03-31T04:35:35.242Z,987.68
2023-03-31T04:36:35.219Z,987.62
2023-03-31T04:37:35.215Z,987.64
2023-03-31T04:38:35.212Z,987.63
2023-03-31T04:39:35.179Z,987.59
2023-03-31T04:40:35.173Z,987.61
2023-03-31T04:41:35.220Z,987.64
2023-03-31T04:42:35.216Z,987.63
2023-03-31T04:43:35.173Z,987.62
2023-03-31T04:44:35.119Z,987.60
2023-03-31T04:45:35.126Z,987.61
2023-03-31T04:46:35.096Z,987.60
2023-03-31T04:47:35.086Z,987.62
2023-03-31T04:48:35.081Z,987.61
2023-03-31T04:49:35.070Z,987.61
2023-03-31T04:50:35.036Z,987.59
2023-03-31T04:51:35.019Z,987.51
2023-03-31T04:52:35.001Z,987.49
2023-03-31T04:53:35.088Z,987.47
2023-03-31T04:54:34.970Z,987.49
2023-03-31T04:55:34.969Z,987.44
2023-03-31T04:56:34.950Z,987.47
2023-03-31T04:57:34.975Z,987.42
2023-03-31T04:58:34.944Z,987.44
2023-03-31T04:59:34.913Z,987.38
2023-03-31T05:00:34.927Z,987.38
2023-03-31T05:01:34.913Z,987.34
2023-03-31T05:02:34.926Z,987.38
2023-03-31T05:03:35.008Z,987.36
2023-03-31T05:04:34.853Z,987.36
2023-03-31T05:05:34.855Z,987.35
2023-03-31T05:06:34.896Z,987.33
2023-03-31T05:07:34.818Z,987.32
2023-03-31T05:08:34.829Z,987.34
2023-03-31T05:09:35.148Z,987.36
2023-03-31T05:10:34.763Z,987.33
2023-03-31T05:11:34.767Z,987.32
2023-03-31T05:12:34.751Z,987.27
2023-03-31T05:13:34.750Z,987.24
2023-03-31T05:14:34.724Z,987.23
2023-03-31T05:15:35.145Z,987.16
2023-03-31T05:16:34.741Z,987.16
2023-03-31T05:17:34.748Z,987.21
2023-03-31T05:18:34.682Z,987.15
2023-03-31T05:19:34.673Z,987.11
2023-03-31T05:20:34.649Z,987.11
2023-03-31T05:21:34.622Z,987.06
2023-03-31T05:22:34.611Z,987.03
2023-03-31T05:23:34.618Z,987.04
2023-03-31T05:24:34.628Z,987.00
2023-03-31T05:25:34.578Z,986.99
2023-03-31T05:26:34.565Z,987.01
2023-03-31T05:27:34.653Z,987.03
2023-03-31T05:28:34.556Z,987.04
2023-03-31T05:29:34.513Z,987.07
2023-03-31T05:30:34.518Z,987.06
2023-03-31T05:31:34.542Z,987.10
2023-03-31T05:32:34.527Z,987.14
2023-03-31T05:33:34.885Z,987.16
2023-03-31T05:34:34.459Z,987.16
2023-03-31T05:35:34.492Z,987.10
2023-03-31T05:36:34.474Z,987.15
2023-03-31T05:37:34.424Z,987.14
2023-03-31T05:38:34.437Z,987.12
2023-03-31T05:39:34.380Z,987.15
2023-03-31T05:40:34.375Z,987.17
2023-03-31T05:41:34.342Z,987.18
2023-03-31T05:42:34.344Z,987.21
2023-03-31T05:43:34.381Z,987.16
2023-03-31T05:44:34.310Z,987.14
2023-03-31T05:45:34.302Z,987.08
2023-03-31T05:46:34.389Z,987.05
2023-03-31T05:47:34.296Z,987.03
2023-03-31T05:48:34.313Z,987.05
2023-03-31T05:49:34.267Z,987.04
2023-03-31T05:50:34.247Z,987.00
2023-03-31T05:51:34.220Z,987.01
2023-03-31T05:52:34.222Z,986.98
2023-03-31T05:53:34.283Z,986.98
2023-03-31T05:54:34.214Z,986.94
2023-03-31T05:55:34.184Z,986.93
2023-03-31T05:56:34.163Z,986.87
2023-03-31T05:57:34.157Z,986.88
2023-03-31T05:58:34.154Z,986.90
2023-03-31T05:59:34.152Z,986.84
2023-03-31T06:00:34.134Z,986.77
2023-03-31T06:01:34.328Z,986.69
2023-03-31T06:02:34.243Z,986.67
2023-03-31T06:03:34.129Z,986.61
2023-03-31T06:04:34.110Z,986.49
2023-03-31T06:05:34.029Z,986.45
2023-03-31T06:06:37.140Z,986.37
2023-03-31T06:07:34.026Z,986.36
2023-03-31T06:08:34.010Z,986.34
2023-03-31T06:09:34.007Z,986.32
2023-03-31T06:10:33.977Z,986.32
2023-03-31T06:11:33.960Z,986.34
2023-03-31T06:12:34.041Z,986.40
2023-03-31T06:13:33.962Z,986.41
2023-03-31T06:14:33.929Z,986.40
2023-03-31T06:15:33.901Z,986.39
2023-03-31T06:16:33.935Z,986.36
2023-03-31T06:17:34.285Z,986.34
2023-03-31T06:18:33.850Z,986.34
2023-03-31T06:19:33.860Z,986.31
2023-03-31T06:20:33.833Z,986.28
2023-03-31T06:21:33.836Z,986.28
2023-03-31T06:22:33.827Z,986.33
2023-03-31T06:23:33.801Z,986.29
2023-03-31T06:24:33.817Z,986.30
2023-03-31T06:25:47.792Z,986.30
2023-03-31T06:26:34.750Z,986.32
2023-03-31T06:27:33.744Z,986.34
2023-03-31T06:28:33.988Z,986.28
2023-03-31T06:29:34.014Z,986.28
2023-03-31T06:30:33.704Z,986.26
2023-03-31T06:31:33.736Z,986.26
2023-03-31T06:32:33.694Z,986.26
2023-03-31T06:33:33.650Z,986.22
2023-03-31T06:34:33.665Z,986.11
2023-03-31T06:35:33.635Z,986.12
2023-03-31T06:36:33.633Z,986.12
2023-03-31T06:37:33.616Z,986.12
2023-03-31T06:38:33.598Z,986.04
2023-03-31T06:39:33.592Z,986.03
2023-03-31T06:40:33.575Z,985.98
2023-03-31T06:41:33.559Z,985.98
2023-03-31T06:42:33.540Z,985.92
2023-03-31T06:43:33.528Z,985.84
2023-03-31T06:44:33.527Z,985.75
2023-03-31T06:45:33.488Z,985.71
2023-03-31T06:46:33.497Z,985.67
2023-03-31T06:47:33.510Z,985.60
2023-03-31T06:48:33.452Z,985.59
2023-03-31T06:49:33.464Z,985.62
2023-03-31T06:50:33.429Z,985.63
2023-03-31T06:51:33.408Z,985.56
2023-03-31T06:52:33.400Z,985.51
2023-03-31T06:53:33.379Z,985.46
2023-03-31T06:54:33.392Z,985.56
2023-03-31T06:55:33.573Z,985.58
2023-03-31T06:56:33.355Z,985.63
2023-03-31T06:57:33.387Z,985.64
2023-03-31T06:58:33.304Z,985.64
2023-03-31T06:59:33.291Z,985.67
2023-03-31T07:00:33.302Z,985.67
2023-03-31T07:01:33.278Z,985.72
2023-03-31T07:02:33.337Z,985.70
2023-03-31T07:03:33.267Z,985.67
2023-03-31T07:04:33.247Z,985.64
2023-03-31T07:05:33.218Z,985.59
2023-03-31T07:06:33.205Z,985.58
2023-03-31T07:07:33.180Z,985.55
2023-03-31T07:08:33.179Z,985.50
2023-03-31T07:09:33.358Z,985.49
2023-03-31T07:10:33.142Z,985.44
2023-03-31T07:11:33.134Z,985.49
2023-03-31T07:12:33.111Z,985.52
2023-03-31T07:13:33.095Z,985.47
2023-03-31T07:14:33.108Z,985.44
2023-03-31T07:15:33.067Z,985.36
2023-03-31T07:16:33.168Z,985.30
2023-03-31T07:17:33.117Z,985.34
2023-03-31T07:18:35.117Z,985.30
2023-03-31T07:19:33.042Z,985.30
2023-03-31T07:20:33.025Z,985.28
2023-03-31T07:21:33.009Z,985.24
2023-03-31T07:22:32.994Z,985.24
2023-03-31T07:23:32.974Z,985.20
2023-03-31T07:24:32.989Z,985.18
2023-03-31T07:25:32.944Z,985.16
2023-03-31T07:26:32.950Z,985.14
2023-03-31T07:27:32.933Z,985.08
2023-03-31T07:28:32.924Z,985.12
2023-03-31T07:29:32.910Z,985.08
2023-03-31T07:30:32.905Z,984.99
2023-03-31T07:31:32.931Z,984.96
2023-03-31T07:32:32.870Z,984.93
2023-03-31T07:33:32.834Z,984.94
2023-03-31T07:34:34.466Z,984.97
2023-03-31T07:35:32.868Z,984.95
2023-03-31T07:36:32.830Z,984.95
2023-03-31T07:37:32.787Z,984.93
2023-03-31T07:38:32.781Z,984.92
2023-03-31T07:39:32.774Z,984.92
2023-03-31T07:40:32.750Z,984.93
2023-03-31T07:41:32.734Z,984.91
2023-03-31T07:42:32.725Z,984.94
2023-03-31T07:43:32.704Z,984.92
2023-03-31T07:44:32.724Z,984.91
2023-03-31T07:45:32.693Z,984.86
2023-03-31T07:46:32.762Z,984.86
2023-03-31T07:47:32.666Z,984.79
2023-03-31T07:48:32.654Z,984.85
2023-03-31T07:49:32.645Z,984.80
2023-03-31T07:50:32.624Z,984.73
2023-03-31T07:51:32.594Z,984.70
2023-03-31T07:52:32.600Z,984.72
2023-03-31T07:53:32.574Z,984.74
2023-03-31T07:54:32.593Z,984.78
2023-03-31T07:55:32.556Z,984.76
2023-03-31T07:56:32.530Z,984.74
2023-03-31T07:57:32.614Z,984.75
2023-03-31T07:58:32.528Z,984.78
2023-03-31T07:59:32.500Z,984.75
2023-03-31T08:00:32.542Z,984.76
2023-03-31T08:01:32.518Z,984.73
2023-03-31T08:02:32.574Z,984.77
2023-03-31T08:03:32.507Z,984.78
2023-03-31T08:04:32.570Z,984.79
2023-03-31T08:05:32.441Z,984.79
2023-03-31T08:06:32.410Z,984.83
2023-03-31T08:07:32.393Z,984.78
2023-03-31T08:08:32.388Z,984.78
2023-03-31T08:09:32.369Z,984.73
2023-03-31T08:10:32.375Z,984.77
2023-03-31T08:11:32.349Z,984.78
2023-03-31T08:12:32.337Z,984.77
2023-03-31T08:13:32.320Z,984.78
2023-03-31T08:14:40.737Z,984.79
2023-03-31T08:15:33.315Z,984.83
2023-03-31T08:16:32.328Z,984.79
2023-03-31T08:17:32.316Z,984.75
2023-03-31T08:18:32.288Z,984.81
2023-03-31T08:19:32.273Z,984.80
2023-03-31T08:20:32.251Z,984.81
2023-03-31T08:21:32.221Z,984.80
2023-03-31T08:22:32.193Z,984.81
2023-03-31T08:23:32.193Z,984.78
2023-03-31T08:24:32.164Z,984.79
2023-03-31T08:25:32.182Z,984.76
2023-03-31T08:26:32.159Z,984.83
2023-03-31T08:27:32.132Z,984.79
2023-03-31T08:28:32.115Z,984.76
2023-03-31T08:29:32.100Z,984.78
2023-03-31T08:30:32.105Z,984.75
2023-03-31T08:31:32.099Z,984.76
2023-03-31T08:32:32.080Z,984.79
2023-03-31T08:33:32.048Z,984.79
2023-03-31T08:34:32.045Z,984.78
2023-03-31T08:35:32.048Z,984.78
2023-03-31T08:36:32.021Z,984.75
2023-03-31T08:37:31.996Z,984.71
2023-03-31T08:38:31.980Z,984.74
2023-03-31T08:39:31.970Z,984.76
2023-03-31T08:40:31.974Z,984.70
2023-03-31T08:41:31.966Z,984.62
2023-03-31T08:42:39.002Z,984.64
2023-03-31T08:43:31.926Z,984.62
2023-03-31T08:44:31.914Z,984.64
2023-03-31T08:45:31.949Z,984.62
2023-03-31T08:46:31.974Z,984.60
2023-03-31T08:47:31.880Z,984.62
2023-03-31T08:48:31.848Z,984.59
2023-03-31T08:49:31.843Z,984.54
2023-03-31T08:50:31.845Z,984.49
2023-03-31T08:51:31.824Z,984.47
2023-03-31T08:52:31.805Z,984.47
2023-03-31T08:53:31.789Z,984.45
2023-03-31T08:54:31.771Z,984.43
2023-03-31T08:55:31.785Z,984.40
2023-03-31T08:56:31.805Z,984.36
2023-03-31T08:57:31.831Z,984.40
2023-03-31T08:58:31.722Z,984.36
2023-03-31T08:59:31.757Z,984.38
2023-03-31T09:00:31.782Z,984.34
2023-03-31T09:01:34.051Z,984.33
2023-03-31T09:02:32.873Z,984.30
2023-03-31T09:03:31.785Z,984.32
2023-03-31T09:04:31.637Z,984.38
2023-03-31T09:05:31.644Z,984.30
2023-03-31T09:06:31.600Z,984.28
2023-03-31T09:07:31.610Z,984.31
2023-03-31T09:08:31.604Z,984.34
2023-03-31T09:09:31.587Z,984.30
2023-03-31T09:10:31.561Z,984.27
2023-03-31T09:11:31.573Z,984.25
2023-03-31T09:12:31.534Z,984.26
2023-03-31T09:13:31.527Z,984.31
2023-03-31T09:14:31.509Z,984.28
2023-03-31T09:15:31.503Z,984.22
2023-03-31T09:16:31.539Z,984.20
2023-03-31T09:17:31.533Z,984.22
2023-03-31T09:18:31.468Z,984.21
2023-03-31T09:19:31.499Z,984.20
2023-03-31T09:20:31.461Z,984.22
2023-03-31T09:21:31.448Z,984.20
2023-03-31T09:22:31.400Z,984.21
2023-03-31T09:23:31.406Z,984.24
2023-03-31T09:24:32.778Z,984.18
2023-03-31T09:25:31.381Z,984.13
2023-03-31T09:26:31.371Z,984.16
2023-03-31T09:27:31.416Z,984.14
2023-03-31T09:28:31.321Z,984.12
2023-03-31T09:29:31.311Z,984.13
2023-03-31T09:30:31.322Z,984.06
2023-03-31T09:31:31.431Z,984.05
2023-03-31T09:32:31.320Z,984.10
2023-03-31T09:33:31.264Z,984.12
2023-03-31T09:34:31.254Z,984.06
2023-03-31T09:35:31.264Z,984.11
2023-03-31T09:36:31.308Z,984.12
2023-03-31T09:37:31.214Z,984.14
2023-03-31T09:38:31.261Z,984.11
2023-03-31T09:39:31.185Z,984.06
2023-03-31T09:40:31.174Z,984.03
2023-03-31T09:41:33.027Z,984.00
2023-03-31T09:42:31.141Z,983.96
2023-03-31T09:43:31.132Z,983.95
2023-03-31T09:44:31.123Z,983.98
2023-03-31T09:45:31.103Z,983.99
2023-03-31T09:46:31.155Z,983.98
2023-03-31T09:47:31.115Z,983.94
2023-03-31T09:48:31.062Z,983.86
2023-03-31T09:49:31.060Z,983.82
2023-03-31T09:50:31.041Z,983.88
2023-03-31T09:51:31.065Z,983.85
2023-03-31T09:52:31.013Z,983.85
2023-03-31T09:53:31.004Z,983.88
2023-03-31T09:54:31.005Z,983.81
2023-03-31T09:55:39.637Z,983.91
2023-03-31T09:56:31.962Z,983.90
2023-03-31T09:57:33.488Z,983.80
2023-03-31T09:58:30.933Z,983.89
2023-03-31T09:59:30.924Z,983.87
2023-03-31T10:00:30.909Z,983.82
2023-03-31T10:01:30.955Z,983.78
2023-03-31T10:02:30.910Z,983.72
2023-03-31T10:03:30.898Z,983.66
2023-03-31T10:04:30.885Z,983.65
2023-03-31T10:05:30.848Z,983.62
2023-03-31T10:06:30.836Z,983.61
2023-03-31T10:07:30.839Z,983.59
2023-03-31T10:08:30.801Z,983.61
2023-03-31T10:09:30.805Z,983.65
2023-03-31T10:10:30.778Z,983.64
2023-03-31T10:11:30.767Z,983.61
2023-03-31T10:12:30.774Z,983.61
2023-03-31T10:13:30.746Z,983.61
2023-03-31T10:14:30.719Z,983.58
2023-03-31T10:15:30.748Z,983.61
2023-03-31T10:16:30.867Z,983.65
2023-03-31T10:17:33.998Z,983.57
2023-03-31T10:18:31.721Z,983.61
2023-03-31T10:19:30.668Z,983.61
2023-03-31T10:20:30.647Z,983.63
2023-03-31T10:21:30.635Z,983.65
2023-03-31T10:22:30.640Z,983.61
2023-03-31T10:23:30.647Z,983.61
2023-03-31T10:24:30.597Z,983.59
2023-03-31T10:25:30.585Z,983.65
2023-03-31T10:26:30.565Z,983.63
2023-03-31T10:27:30.579Z,983.62
2023-03-31T10:28:30.593Z,983.68
2023-03-31T10:29:30.542Z,983.73
2023-03-31T10:30:30.524Z,983.74
2023-03-31T10:31:30.522Z,983.74
2023-03-31T10:32:30.566Z,983.68
2023-03-31T10:33:30.490Z,983.62
2023-03-31T10:34:30.461Z,983.61
2023-03-31T10:35:30.451Z,983.62
2023-03-31T10:36:30.593Z,983.71
2023-03-31T10:37:30.438Z,983.76
2023-03-31T10:38:30.415Z,983.77
2023-03-31T10:39:30.406Z,983.75
2023-03-31T10:40:30.397Z,983.80
2023-03-31T10:41:30.375Z,983.93
2023-03-31T10:42:30.392Z,983.95
2023-03-31T10:43:30.410Z,983.65
2023-03-31T10:44:30.326Z,983.68
2023-03-31T10:45:37.443Z,983.64
2023-03-31T10:46:31.374Z,983.35
2023-03-31T10:47:30.336Z,983.41
2023-03-31T10:48:30.323Z,983.47
2023-03-31T10:49:30.256Z,983.51
2023-03-31T10:50:30.254Z,983.53
2023-03-31T10:51:30.239Z,983.53
2023-03-31T10:52:30.262Z,983.61
2023-03-31T10:53:30.214Z,983.52
2023-03-31T10:54:30.186Z,983.53
2023-03-31T10:55:30.175Z,983.54
2023-03-31T10:56:30.179Z,983.54
2023-03-31T10:57:30.234Z,983.52
2023-03-31T10:58:30.164Z,983.49
2023-03-31T10:59:30.185Z,983.44
2023-03-31T11:00:30.119Z,983.48
2023-03-31T11:01:30.187Z,983.49
2023-03-31T11:02:30.173Z,983.49
2023-03-31T11:03:30.144Z,983.49
2023-03-31T11:04:30.055Z,983.46
2023-03-31T11:05:30.056Z,983.42
2023-03-31T11:06:30.034Z,983.43
2023-03-31T11:07:30.084Z,983.43
2023-03-31T11:08:30.013Z,983.45
2023-03-31T11:09:30.008Z,983.42
2023-03-31T11:10:29.986Z,983.40
2023-03-31T11:11:29.971Z,983.43
2023-03-31T11:12:29.985Z,983.44
2023-03-31T11:13:29.958Z,983.44
2023-03-31T11:14:30.992Z,983.47
2023-03-31T11:15:29.936Z,983.46
2023-03-31T11:16:29.961Z,983.48
2023-03-31T11:17:29.922Z,983.42
2023-03-31T11:18:29.896Z,983.44
2023-03-31T11:19:29.852Z,983.43
2023-03-31T11:20:31.039Z,983.43
2023-03-31T11:21:29.841Z,983.43
2023-03-31T11:22:29.835Z,983.42
2023-03-31T11:23:29.839Z,983.38
2023-03-31T11:24:29.788Z,983.43
2023-03-31T11:25:29.793Z,983.37
2023-03-31T11:26:30.922Z,983.36
2023-03-31T11:27:29.759Z,983.27
2023-03-31T11:28:29.763Z,983.32
2023-03-31T11:29:29.744Z,983.27
2023-03-31T11:30:29.716Z,983.26
2023-03-31T11:31:29.729Z,983.24
2023-03-31T11:32:31.454Z,983.34
2023-03-31T11:33:29.710Z,983.12
2023-03-31T11:34:29.714Z,983.39
2023-03-31T11:35:29.675Z,983.39
2023-03-31T11:36:29.648Z,983.31
2023-03-31T11:37:29.628Z,983.29
2023-03-31T11:38:29.642Z,983.28
2023-03-31T11:39:29.611Z,983.23
2023-03-31T11:40:29.585Z,983.22
2023-03-31T11:41:29.586Z,983.10
2023-03-31T11:42:29.558Z,983.06
2023-03-31T11:43:29.570Z,983.16
2023-03-31T11:44:29.544Z,983.14
2023-03-31T11:45:29.536Z,983.16
2023-03-31T11:46:29.618Z,983.11
2023-03-31T11:47:29.529Z,983.07
2023-03-31T11:48:29.509Z,983.05
2023-03-31T11:49:29.524Z,983.05
2023-03-31T11:50:29.472Z,983.07
2023-03-31T11:51:29.456Z,983.02
2023-03-31T11:52:29.432Z,983.07
2023-03-31T11:53:29.419Z,983.06
2023-03-31T11:54:29.429Z,983.05
2023-03-31T11:55:29.415Z,983.02
2023-03-31T11:56:29.388Z,983.05
2023-03-31T11:57:29.450Z,983.03
2023-03-31T11:58:29.360Z,983.02
2023-03-31T11:59:29.362Z,983.04
2023-03-31T12:00:29.326Z,983.02
2023-03-31T12:01:29.319Z,983.04
2023-03-31T12:02:29.330Z,983.01
2023-03-31T12:03:29.433Z,983.07
2023-03-31T12:04:29.298Z,983.05
2023-03-31T12:05:29.285Z,983.07
2023-03-31T12:06:29.464Z,983.01
2023-03-31T12:07:29.254Z,983.03
2023-03-31T12:08:29.226Z,983.02
2023-03-31T12:09:29.220Z,982.99
2023-03-31T12:10:29.183Z,983.03
2023-03-31T12:11:29.214Z,983.00
2023-03-31T12:12:29.165Z,982.99
2023-03-31T12:13:29.159Z,983.08
2023-03-31T12:14:29.184Z,983.12
2023-03-31T12:15:29.131Z,983.08
2023-03-31T12:16:29.148Z,983.10
2023-03-31T12:17:29.932Z,983.15
2023-03-31T12:18:29.089Z,983.06
2023-03-31T12:19:29.086Z,983.01
2023-03-31T12:20:29.070Z,982.97
2023-03-31T12:21:29.058Z,982.96
2023-03-31T12:22:29.039Z,982.88
2023-03-31T12:23:29.024Z,982.88
2023-03-31T12:24:29.042Z,982.90
2023-03-31T12:25:29.002Z,982.90
2023-03-31T12:26:28.981Z,982.88
2023-03-31T12:27:28.990Z,982.87
2023-03-31T12:28:28.958Z,982.83